»·PEaware :: N220CT KGJT-KASE

N220CT :: KGJT-KASE

FLIGHT INFORMATION

Flight Status: Arrived
Operator: Privately registered:
United States
More flights under this callsign
Pilot: Jon L. (9715)
Aircraft: Unknown
(S22T)
More flights by this aircraft type
Origin: KGJT Walker
United States
Destination: KASE Aspen-Pitkin Co/Sardy
United States
More flights between these airports :: More routes between these airports
Route: +V134 DBL
File this flight plan on PilotEdge
Remarks:
Altitude:
(Current/Filed)
17,000ft
Speed:
(Current/Filed)
170kts
Departed: 22-May-17 04:03 PM
Arrived: 22-May-17 04:44 PM
Distance/Time
Traveled:
77nm/0:41
Distance/Time
To Go:
Arrived

Flight Plot

Page will automatically refresh every two minutes.

Flight plan parsing failed; only flown route is shown


Map Options




Map Legend


Flown Route
Filed Route
Departure Airport
Arrival Airport
Navaid (VOR, NDB)
Fix

Horizontal Profiles

Position Reports

Time Latitude Longitude Heading Altitude Ground
Speed
22-May-17 15:55 39.118636 -108.514596 305 4862ft 0kts
22-May-17 15:56 39.118636 -108.514596 305 4862ft 0kts
22-May-17 15:57 39.118636 -108.514596 305 4862ft 0kts
22-May-17 15:58 39.118637 -108.514599 305 4862ft 0kts
22-May-17 15:59 39.118644 -108.514610 304 4862ft 0kts
22-May-17 16:00 39.118650 -108.514622 304 4862ft 0kts
22-May-17 16:01 39.118656 -108.514633 304 4862ft 0kts
22-May-17 16:02 39.118662 -108.514644 304 4862ft 0kts
22-May-17 16:03 39.118662 -108.514644 304 4862ft 0kts
22-May-17 16:04 39.118662 -108.514645 304 4862ft 0kts
22-May-17 16:05 39.129254 -108.539519 284 5306ft 131kts
22-May-17 16:06 39.134758 -108.592621 280 6176ft 161kts
22-May-17 16:07 39.108313 -108.622754 160 7018ft 165kts
22-May-17 16:08 39.098736 -108.580845 59 7838ft 153kts
22-May-17 16:09 39.114278 -108.529540 71 8645ft 154kts
22-May-17 16:10 39.127313 -108.476949 71 9443ft 153kts
22-May-17 16:11 39.140185 -108.424259 71 10249ft 155kts
22-May-17 16:12 39.151761 -108.375277 72 10986ft 155kts
22-May-17 16:13 39.162649 -108.321399 73 11890ft 153kts
22-May-17 16:14 39.172110 -108.268597 73 12986ft 150kts
22-May-17 16:15 39.182399 -108.216325 73 13935ft 156kts
22-May-17 16:16 39.194511 -108.157882 73 14003ft 176kts
22-May-17 16:17 39.205937 -108.095968 78 14002ft 179kts
22-May-17 16:18 39.215753 -108.034896 72 13995ft 166kts
22-May-17 16:19 39.226756 -107.978447 74 13998ft 159kts
22-May-17 16:20 39.237925 -107.922594 73 14156ft 162kts
22-May-17 16:21 39.248776 -107.868443 73 15132ft 154kts
22-May-17 16:22 39.259574 -107.814496 74 16134ft 156kts
22-May-17 16:23 39.270597 -107.759158 75 16955ft 168kts
22-May-17 16:24 39.280922 -107.707198 73 17025ft 203kts
22-May-17 16:25 39.295870 -107.631461 73 17003ft 225kts
22-May-17 16:26 39.311368 -107.552541 73 17000ft 227kts
22-May-17 16:27 39.326972 -107.473009 73 17000ft 228kts
22-May-17 16:28 39.342493 -107.393686 73 16999ft 227kts
22-May-17 16:29 39.357453 -107.317001 73 16998ft 217kts
22-May-17 16:30 39.372098 -107.241801 73 16999ft 215kts
22-May-17 16:31 39.386692 -107.166511 73 16999ft 215kts
22-May-17 16:32 39.401304 -107.090750 74 16060ft 222kts
22-May-17 16:33 39.416122 -107.012725 74 14090ft 222kts
22-May-17 16:34 39.430007 -106.941204 73 13993ft 192kts
22-May-17 16:35 39.453210 -106.887602 352 13997ft 165kts
22-May-17 16:36 39.471739 -106.930801 280 14001ft 147kts
22-May-17 16:37 39.471389 -106.980826 312 13999ft 151kts
22-May-17 16:38 39.493083 -106.948421 133 14000ft 181kts
22-May-17 16:39 39.451418 -106.922079 133 14006ft 182kts
22-May-17 16:40 39.412909 -106.889288 188 13956ft 158kts
22-May-17 16:41 39.370210 -106.886483 181 12990ft 154kts
22-May-17 16:42 39.323693 -106.881967 177 12098ft 185kts
22-May-17 16:43 39.271528 -106.874961 175 10559ft 186kts
22-May-17 16:44 39.227713 -106.859917 138 8936ft 155kts
22-May-17 16:45 39.208089 -106.861044 324 8557ft 133kts
22-May-17 16:46 39.228927 -106.871469 158 7824ft 8kts
22-May-17 16:47 39.227643 -106.869863 280 7824ft 0kts
22-May-17 16:48 39.227643 -106.869863 280 7824ft 0kts
22-May-17 16:49 39.227643 -106.869864 280 7824ft 0kts
22-May-17 16:50 39.227644 -106.869864 280 7824ft 0kts
22-May-17 16:51 39.227644 -106.869865 280 7824ft 0kts
22-May-17 16:52 39.227644 -106.869865 280 7824ft 0kts
22-May-17 16:53 39.227644 -106.869865 280 7824ft 0kts
22-May-17 16:54 39.227644 -106.869865 280 7824ft 0kts
22-May-17 16:55 39.227644 -106.869866 280 7824ft 0kts
22-May-17 16:56 39.227644 -106.869866 280 7824ft 0kts
22-May-17 16:57 39.227644 -106.869867 280 7824ft 0kts
22-May-17 16:58 39.227644 -106.869867 280 7824ft 0kts
22-May-17 16:59 39.227644 -106.869868 280 7824ft 0kts
22-May-17 17:00 39.227644 -106.869868 280 7824ft 0kts

Navigation Log

Ident Type
Flight plan parsing failed, navigation log unavailable